createdAt,value
2023-01-01T00:02:04.445Z,12.80
2023-01-01T00:04:32.591Z,12.70
2023-01-01T00:06:59.269Z,12.70
2023-01-01T00:09:44.650Z,12.60
2023-01-01T00:12:11.686Z,12.70
2023-01-01T00:14:39.389Z,12.70
2023-01-01T00:17:06.077Z,12.60
2023-01-01T00:19:32.718Z,12.70
2023-01-01T00:22:02.132Z,12.70
2023-01-01T00:24:36.656Z,12.70
2023-01-01T00:27:03.342Z,12.70
2023-01-01T00:29:30.079Z,12.70
2023-01-01T00:31:56.871Z,12.70
2023-01-01T00:34:23.574Z,12.60
2023-01-01T00:36:50.202Z,12.60
2023-01-01T00:39:17.106Z,12.60
2023-01-01T00:41:43.914Z,12.60
2023-01-01T00:44:10.616Z,12.50
2023-01-01T00:46:37.278Z,12.50
2023-01-01T00:49:04.029Z,12.50
2023-01-01T00:51:36.717Z,12.60
2023-01-01T00:54:03.897Z,12.60
2023-01-01T00:56:30.562Z,12.60
2023-01-01T00:59:01.027Z,12.60
2023-01-01T01:01:28.415Z,12.60
2023-01-01T01:03:55.279Z,12.60
2023-01-01T01:06:22.431Z,12.60
2023-01-01T01:08:49.104Z,12.60
2023-01-01T01:11:23.308Z,12.50
2023-01-01T01:13:52.342Z,12.60
2023-01-01T01:16:21.882Z,12.60
2023-01-01T01:18:51.909Z,12.60
2023-01-01T01:21:20.081Z,12.60
2023-01-01T01:23:47.215Z,12.60
2023-01-01T01:26:16.927Z,12.70
2023-01-01T01:28:49.350Z,12.60
2023-01-01T01:31:18.294Z,12.70
2023-01-01T01:33:46.705Z,12.60
2023-01-01T01:36:14.373Z,12.60
2023-01-01T01:38:41.733Z,12.40
2023-01-01T01:41:08.677Z,12.50
2023-01-01T01:43:35.324Z,12.50
2023-01-01T01:46:06.185Z,11.60
2023-01-01T01:48:39.597Z,12.60
2023-01-01T01:51:07.186Z,12.50
2023-01-01T01:53:37.806Z,12.50
2023-01-01T01:56:14.816Z,12.50
2023-01-01T01:58:41.730Z,12.40
2023-01-01T02:01:08.792Z,12.50
2023-01-01T02:03:55.536Z,12.60
2023-01-01T02:06:22.307Z,12.50
2023-01-01T02:08:50.982Z,12.50
2023-01-01T02:11:21.922Z,12.50
2023-01-01T02:13:49.740Z,12.40
2023-01-01T02:16:47.572Z,12.40
2023-01-01T02:19:43.990Z,12.40
2023-01-01T02:22:18.779Z,12.40
2023-01-01T02:25:18.226Z,12.30
2023-01-01T02:27:54.359Z,12.30
2023-01-01T02:30:21.239Z,12.30
2023-01-01T02:32:54.190Z,12.50
2023-01-01T02:35:34.808Z,12.40
2023-01-01T02:38:16.558Z,12.40
2023-01-01T02:40:47.705Z,12.30
2023-01-01T02:45:39.876Z,12.20
2023-01-01T02:48:27.933Z,12.20
2023-01-01T02:50:57.405Z,12.20
2023-01-01T02:53:36.063Z,12.20
2023-01-01T02:56:22.319Z,12.20
2023-01-01T02:59:34.821Z,12.10
2023-01-01T03:02:36.753Z,12.00
2023-01-01T03:05:24.775Z,12.10
2023-01-01T03:08:14.618Z,12.10
2023-01-01T03:11:07.566Z,12.10
2023-01-01T03:13:46.859Z,12.10
2023-01-01T03:16:36.540Z,12.10
2023-01-01T03:19:18.391Z,12.10
2023-01-01T03:21:53.918Z,12.10
2023-01-01T03:24:26.174Z,12.00
2023-01-01T03:26:58.256Z,12.10
2023-01-01T03:29:29.105Z,12.20
2023-01-01T03:31:58.691Z,12.10
2023-01-01T03:34:33.998Z,12.00
2023-01-01T03:37:06.232Z,11.90
2023-01-01T03:39:43.213Z,11.90
2023-01-01T03:42:31.873Z,11.80
2023-01-01T03:45:01.662Z,11.80
2023-01-01T03:47:29.934Z,11.80
2023-01-01T03:49:58.014Z,11.90
2023-01-01T03:52:30.438Z,11.90
2023-01-01T03:55:06.427Z,11.90
2023-01-01T03:57:48.191Z,11.80
2023-01-01T04:00:21.547Z,11.80
2023-01-01T04:03:08.303Z,11.80
2023-01-01T04:05:40.755Z,11.90
2023-01-01T04:08:08.481Z,11.80
2023-01-01T04:10:39.477Z,11.80
2023-01-01T04:13:06.907Z,11.80
2023-01-01T04:15:35.876Z,11.80
2023-01-01T04:18:03.415Z,11.70
2023-01-01T04:20:30.514Z,11.70
2023-01-01T04:22:58.734Z,11.90
2023-01-01T04:25:26.233Z,11.80
2023-01-01T04:27:52.968Z,11.80
2023-01-01T04:30:19.857Z,11.80
2023-01-01T04:32:46.570Z,11.90
2023-01-01T04:35:14.880Z,11.80
2023-01-01T04:37:43.383Z,11.80
2023-01-01T04:40:11.514Z,11.80
2023-01-01T04:42:38.349Z,11.90
2023-01-01T04:45:05.864Z,11.80
2023-01-01T04:47:32.666Z,11.80
2023-01-01T04:49:59.345Z,11.80
2023-01-01T04:52:25.973Z,11.70
2023-01-01T04:54:52.686Z,11.70
2023-01-01T04:57:19.392Z,11.70
2023-01-01T04:59:46.101Z,11.70
2023-01-01T05:02:12.917Z,11.70
2023-01-01T05:04:39.697Z,11.70
2023-01-01T05:07:06.359Z,11.60
2023-01-01T05:09:33.031Z,13.00
2023-01-01T05:11:59.846Z,11.70
2023-01-01T05:14:26.495Z,11.70
2023-01-01T05:16:53.223Z,11.70
2023-01-01T05:19:20.039Z,12.30
2023-01-01T05:21:46.851Z,11.60
2023-01-01T05:24:13.666Z,11.50
2023-01-01T05:26:45.119Z,11.50
2023-01-01T05:29:16.696Z,11.40
2023-01-01T05:31:45.218Z,11.50
2023-01-01T05:34:12.367Z,11.50
2023-01-01T05:36:39.699Z,11.50
2023-01-01T05:39:12.027Z,11.40
2023-01-01T05:41:39.268Z,11.50
2023-01-01T05:44:07.360Z,11.80
2023-01-01T05:46:34.630Z,11.40
2023-01-01T05:49:01.423Z,11.40
2023-01-01T05:51:29.816Z,11.40
2023-01-01T05:53:57.197Z,11.00
2023-01-01T05:56:24.394Z,11.40
2023-01-01T05:58:51.065Z,11.40
2023-01-01T06:01:26.290Z,11.40
2023-01-01T06:03:55.059Z,11.70
2023-01-01T06:06:24.813Z,11.40
2023-01-01T06:08:53.527Z,11.50
2023-01-01T06:11:20.905Z,11.30
2023-01-01T06:13:48.037Z,11.30
2023-01-01T06:16:14.954Z,11.30
2023-01-01T06:18:41.693Z,11.20
2023-01-01T06:21:14.810Z,11.20
2023-01-01T06:23:41.974Z,11.20
2023-01-01T06:26:20.789Z,11.20
2023-01-01T06:28:48.377Z,11.20
2023-01-01T06:31:17.465Z,11.30
2023-01-01T06:33:44.252Z,12.80
2023-01-01T06:36:13.456Z,11.30
2023-01-01T06:38:42.492Z,11.50
2023-01-01T06:41:13.007Z,11.30
2023-01-01T06:43:39.945Z,11.30
2023-01-01T06:46:29.640Z,11.30
2023-01-01T06:49:02.731Z,11.30
2023-01-01T06:51:36.606Z,11.30
2023-01-01T06:54:04.712Z,11.20
2023-01-01T06:56:32.162Z,11.30
2023-01-01T06:58:59.347Z,11.30
2023-01-01T07:01:31.637Z,11.30
2023-01-01T07:04:01.075Z,11.20
2023-01-01T07:06:29.898Z,11.30
2023-01-01T07:08:56.913Z,11.40
2023-01-01T07:11:24.312Z,11.30
2023-01-01T07:13:50.977Z,11.30
2023-01-01T07:16:18.243Z,11.30
2023-01-01T07:18:46.170Z,11.30
2023-01-01T07:21:34.354Z,11.30
2023-01-01T07:24:03.285Z,11.30
2023-01-01T07:26:31.991Z,11.30
2023-01-01T07:29:06.217Z,11.40
2023-01-01T07:31:38.223Z,12.70
2023-01-01T07:34:11.046Z,11.40
2023-01-01T07:36:38.241Z,11.40
2023-01-01T07:39:06.008Z,11.50
2023-01-01T07:41:32.672Z,11.50
2023-01-01T07:43:59.537Z,11.60
2023-01-01T07:46:26.438Z,11.50
2023-01-01T07:48:53.386Z,11.50
2023-01-01T07:51:20.095Z,11.50
2023-01-01T07:53:46.885Z,11.70
2023-01-01T07:56:13.637Z,11.70
2023-01-01T07:58:41.483Z,11.70
2023-01-01T08:01:12.130Z,11.80
2023-01-01T08:03:39.321Z,11.80
2023-01-01T08:06:08.883Z,11.80
2023-01-01T08:08:35.627Z,11.90
2023-01-01T08:11:04.009Z,11.90
2023-01-01T08:13:31.175Z,12.00
2023-01-01T08:15:58.774Z,12.00
2023-01-01T08:18:25.771Z,12.10
2023-01-01T08:20:52.546Z,12.10
2023-01-01T08:23:19.329Z,12.10
2023-01-01T08:25:45.987Z,12.10
2023-01-01T08:28:12.642Z,12.20
2023-01-01T08:30:39.448Z,12.20
2023-01-01T08:33:06.121Z,12.20
2023-01-01T08:35:33.973Z,12.30
2023-01-01T08:38:00.642Z,12.30
2023-01-01T08:40:27.358Z,12.30
2023-01-01T08:42:54.099Z,12.30
2023-01-01T08:45:20.798Z,12.40
2023-01-01T08:47:47.475Z,12.40
2023-01-01T08:50:14.287Z,12.30
2023-01-01T08:52:40.975Z,12.40
2023-01-01T08:55:08.010Z,12.40
2023-01-01T08:57:34.734Z,12.40
2023-01-01T09:00:01.556Z,12.40
2023-01-01T09:02:28.395Z,12.40
2023-01-01T09:04:55.232Z,12.30
2023-01-01T09:07:21.884Z,12.40
2023-01-01T09:09:48.592Z,12.50
2023-01-01T09:12:16.972Z,12.50
2023-01-01T09:14:46.640Z,12.30
2023-01-01T09:17:13.415Z,12.50
2023-01-01T09:19:40.298Z,12.50
2023-01-01T09:22:10.587Z,12.60
2023-01-01T09:24:37.282Z,12.50
2023-01-01T09:27:04.124Z,12.60
2023-01-01T09:29:31.114Z,12.60
2023-01-01T09:31:57.849Z,12.70
2023-01-01T09:34:24.670Z,12.70
2023-01-01T09:36:51.381Z,12.70
2023-01-01T09:39:18.135Z,12.80
2023-01-01T09:42:07.137Z,12.90
2023-01-01T09:44:57.347Z,12.70
2023-01-01T09:47:53.450Z,12.90
2023-01-01T09:50:29.650Z,12.80
2023-01-01T09:53:12.417Z,12.90
2023-01-01T09:55:53.292Z,13.00
2023-01-01T09:58:37.999Z,13.00
2023-01-01T10:01:31.365Z,12.80
2023-01-01T10:04:22.440Z,12.90
2023-01-01T10:07:03.735Z,12.90
2023-01-01T10:09:51.513Z,12.90
2023-01-01T10:12:37.118Z,12.90
2023-01-01T10:15:18.561Z,12.90
2023-01-01T10:17:48.316Z,13.00
2023-01-01T10:20:29.559Z,12.90
2023-01-01T10:23:18.799Z,12.90
2023-01-01T10:25:45.571Z,13.00
2023-01-01T10:28:27.399Z,12.90
2023-01-01T10:31:10.887Z,13.10
2023-01-01T10:33:37.582Z,13.10
2023-01-01T10:36:04.948Z,13.10
2023-01-01T10:38:37.125Z,13.20
2023-01-01T10:41:07.521Z,13.10
2023-01-01T10:43:34.182Z,13.20
2023-01-01T10:46:02.708Z,13.20
2023-01-01T10:48:31.417Z,13.20
2023-01-01T10:51:04.146Z,13.20
2023-01-01T10:53:36.154Z,13.20
2023-01-01T10:56:13.591Z,13.20
2023-01-01T10:58:55.174Z,13.20
2023-01-01T11:01:25.018Z,13.20
2023-01-01T11:04:01.775Z,13.20
2023-01-01T11:06:34.966Z,13.30
2023-01-01T11:09:24.272Z,13.30
2023-01-01T11:12:05.394Z,13.40
2023-01-01T11:14:38.972Z,13.40
2023-01-01T11:17:07.131Z,13.50
2023-01-01T11:19:36.885Z,13.50
2023-01-01T11:22:05.491Z,13.50
2023-01-01T11:24:36.252Z,13.50
2023-01-01T11:27:24.671Z,13.50
2023-01-01T11:29:54.718Z,13.60
2023-01-01T11:32:34.558Z,13.60
2023-01-01T11:35:06.457Z,13.70
2023-01-01T11:37:38.714Z,13.70
2023-01-01T11:40:14.989Z,13.80
2023-01-01T11:42:47.271Z,13.80
2023-01-01T11:45:37.994Z,13.80
2023-01-01T11:48:14.164Z,13.80
2023-01-01T11:50:53.621Z,13.90
2023-01-01T11:53:24.347Z,13.90
2023-01-01T11:56:06.415Z,13.90
2023-01-01T11:59:02.730Z,14.10
2023-01-01T12:01:52.483Z,14.10
2023-01-01T12:04:28.278Z,14.10
2023-01-01T12:07:06.196Z,14.20
2023-01-01T12:09:51.488Z,14.20
2023-01-01T12:12:33.379Z,14.20
2023-01-01T12:15:11.130Z,14.20
2023-01-01T12:17:44.488Z,14.30
2023-01-01T12:20:24.807Z,14.40
2023-01-01T12:22:52.375Z,14.40
2023-01-01T12:25:20.306Z,14.40
2023-01-01T12:28:11.931Z,14.40
2023-01-01T12:31:11.492Z,14.50
2023-01-01T12:34:05.432Z,14.50
2023-01-01T12:36:41.139Z,14.50
2023-01-01T12:39:26.891Z,14.50
2023-01-01T12:42:22.297Z,15.50
2023-01-01T12:45:12.959Z,14.60
2023-01-01T12:48:03.805Z,14.60
2023-01-01T12:50:51.407Z,14.60
2023-01-01T12:53:45.929Z,14.60
2023-01-01T12:56:23.484Z,14.70
2023-01-01T12:59:03.244Z,14.70
2023-01-01T13:01:35.683Z,14.70
2023-01-01T13:04:12.619Z,14.70
2023-01-01T13:07:03.729Z,14.70
2023-01-01T13:09:35.317Z,14.80
2023-01-01T13:12:05.350Z,14.70
2023-01-01T13:14:41.685Z,14.80
2023-01-01T13:17:22.691Z,14.80
2023-01-01T13:19:55.678Z,14.80
2023-01-01T13:22:36.599Z,14.80
2023-01-01T13:25:10.700Z,15.00
2023-01-01T13:28:03.786Z,14.80
2023-01-01T13:30:39.678Z,14.90
2023-01-01T13:33:27.224Z,14.90
2023-01-01T13:36:09.644Z,15.00
2023-01-01T13:38:56.793Z,15.10
2023-01-01T13:41:26.595Z,15.10
2023-01-01T13:44:11.102Z,15.10
2023-01-01T13:46:43.909Z,15.10
2023-01-01T13:49:37.465Z,15.10
2023-01-01T13:52:19.216Z,15.10
2023-01-01T13:55:30.437Z,15.20
2023-01-01T13:58:15.064Z,15.20
2023-01-01T14:00:53.741Z,15.20
2023-01-01T14:03:21.509Z,15.10
2023-01-01T14:05:55.492Z,15.10
2023-01-01T14:08:36.747Z,15.10
2023-01-01T14:11:21.470Z,15.10
2023-01-01T14:13:48.532Z,15.10
2023-01-01T14:16:16.185Z,15.10
2023-01-01T14:18:46.583Z,15.10
2023-01-01T14:21:25.604Z,15.10
2023-01-01T14:24:02.258Z,15.10
2023-01-01T14:26:30.871Z,15.10
2023-01-01T14:28:59.546Z,15.10
2023-01-01T14:31:34.309Z,15.10
2023-01-01T14:34:02.384Z,15.10
2023-01-01T14:36:31.507Z,15.50
2023-01-01T14:39:03.170Z,15.10
2023-01-01T14:41:33.031Z,15.00
2023-01-01T14:44:15.283Z,15.00
2023-01-01T14:46:48.449Z,15.00
2023-01-01T14:49:27.369Z,15.00
2023-01-01T14:52:03.683Z,15.00
2023-01-01T14:54:36.135Z,15.00
2023-01-01T14:57:03.134Z,15.00
2023-01-01T14:59:34.100Z,15.00
2023-01-01T15:02:02.346Z,14.90
2023-01-01T15:04:29.820Z,15.00
2023-01-01T15:07:00.966Z,16.00
2023-01-01T15:09:28.738Z,14.90
2023-01-01T15:11:56.722Z,14.90
2023-01-01T15:14:42.528Z,15.00
2023-01-01T15:17:11.819Z,15.00
2023-01-01T15:19:41.407Z,14.90
2023-01-01T15:22:29.473Z,14.80
2023-01-01T15:24:56.372Z,14.80
2023-01-01T15:27:32.917Z,14.70
2023-01-01T15:30:00.313Z,14.60
2023-01-01T15:32:29.973Z,14.60
2023-01-01T15:34:58.760Z,14.50
2023-01-01T15:37:47.177Z,14.60
2023-01-01T15:40:13.910Z,14.60
2023-01-01T15:42:58.567Z,14.50
2023-01-01T15:45:30.312Z,14.50
2023-01-01T15:48:17.791Z,14.50
2023-01-01T15:50:50.189Z,14.40
2023-01-01T15:53:23.401Z,14.40
2023-01-01T15:56:11.272Z,14.50
2023-01-01T15:58:42.825Z,14.30
2023-01-01T16:01:13.242Z,14.20
2023-01-01T16:03:42.189Z,14.30
2023-01-01T16:06:16.798Z,14.20
2023-01-01T16:08:43.781Z,14.20
2023-01-01T16:11:10.492Z,14.20
2023-01-01T16:13:37.255Z,14.10
2023-01-01T16:16:04.690Z,14.20
2023-01-01T16:18:33.943Z,14.20
2023-01-01T16:21:02.723Z,14.10
2023-01-01T16:23:29.391Z,14.10
2023-01-01T16:25:56.091Z,14.10
2023-01-01T16:28:23.663Z,14.00
2023-01-01T16:30:51.078Z,14.00
2023-01-01T16:33:20.152Z,13.90
2023-01-01T16:35:47.611Z,13.90
2023-01-01T16:38:14.475Z,14.10
2023-01-01T16:40:41.218Z,13.90
2023-01-01T16:43:16.595Z,13.80
2023-01-01T16:45:46.658Z,14.60
2023-01-01T16:48:13.430Z,13.80
2023-01-01T16:50:40.373Z,13.80
2023-01-01T16:53:07.059Z,13.80
2023-01-01T16:55:33.820Z,13.80
2023-01-01T16:58:29.570Z,13.70
2023-01-01T17:00:48.026Z,13.70
2023-01-01T17:03:15.254Z,13.70
2023-01-01T17:05:44.633Z,13.70
2023-01-01T17:08:11.939Z,13.70
2023-01-01T17:10:38.625Z,13.60
2023-01-01T17:13:05.382Z,13.60
2023-01-01T17:15:32.411Z,13.60
2023-01-01T17:17:59.491Z,13.60
2023-01-01T17:20:26.646Z,13.60
2023-01-01T17:22:53.442Z,13.60
2023-01-01T17:25:20.293Z,13.60
2023-01-01T17:27:47.012Z,13.50
2023-01-01T17:30:14.738Z,13.50
2023-01-01T17:32:41.673Z,13.40
2023-01-01T17:35:08.752Z,13.40
2023-01-01T17:37:35.608Z,13.30
2023-01-01T17:40:02.353Z,13.30
2023-01-01T17:42:29.535Z,13.40
2023-01-01T17:44:56.226Z,13.30
2023-01-01T17:47:25.510Z,13.20
2023-01-01T17:49:55.998Z,13.20
2023-01-01T17:52:22.684Z,13.20
2023-01-01T17:54:49.421Z,13.10
2023-01-01T17:57:17.073Z,13.20
2023-01-01T17:59:44.333Z,13.10
2023-01-01T18:02:14.826Z,13.10
2023-01-01T18:04:41.770Z,13.40
2023-01-01T18:07:08.620Z,13.10
2023-01-01T18:09:38.048Z,13.10
2023-01-01T18:12:05.847Z,13.00
2023-01-01T18:14:32.510Z,13.10
2023-01-01T18:16:59.239Z,13.10
2023-01-01T18:19:27.652Z,13.20
2023-01-01T18:21:54.449Z,11.70
2023-01-01T18:24:22.195Z,14.30
2023-01-01T18:26:48.930Z,12.90
2023-01-01T18:29:15.731Z,12.90
2023-01-01T18:31:42.467Z,13.00
2023-01-01T18:34:11.947Z,12.90
2023-01-01T18:36:39.511Z,13.00
2023-01-01T18:39:27.338Z,12.90
2023-01-01T18:42:32.578Z,12.90
2023-01-01T18:45:15.305Z,12.80
2023-01-01T18:47:42.705Z,12.80
2023-01-01T18:50:27.417Z,12.70
2023-01-01T18:53:07.076Z,12.70
2023-01-01T18:55:33.787Z,12.90
2023-01-01T18:58:14.945Z,12.70
2023-01-01T19:00:41.934Z,12.80
2023-01-01T19:03:15.262Z,12.70
2023-01-01T19:05:42.001Z,12.80
2023-01-01T19:08:08.694Z,12.80
2023-01-01T19:10:40.671Z,12.90
2023-01-01T19:13:16.188Z,13.00
2023-01-01T19:16:02.660Z,12.90
2023-01-01T19:18:31.746Z,12.90
2023-01-01T19:21:18.477Z,13.00
2023-01-01T19:23:56.690Z,13.00
2023-01-01T19:26:29.784Z,13.00
2023-01-01T19:28:59.828Z,13.00
2023-01-01T19:31:26.585Z,13.00
2023-01-01T19:33:53.427Z,13.00
2023-01-01T19:36:20.340Z,12.90
2023-01-01T19:38:47.056Z,12.70
2023-01-01T19:41:13.808Z,12.80
2023-01-01T19:43:40.485Z,12.90
2023-01-01T19:46:07.216Z,12.90
2023-01-01T19:48:34.843Z,13.00
2023-01-01T19:51:01.568Z,12.90
2023-01-01T19:53:28.219Z,12.90
2023-01-01T19:55:55.012Z,13.00
2023-01-01T19:58:23.054Z,13.30
2023-01-01T20:00:50.777Z,12.90
2023-01-01T20:06:05.255Z,14.20
2023-01-01T20:08:32.436Z,13.00
2023-01-01T20:11:01.858Z,12.90
2023-01-01T20:13:28.654Z,12.90
2023-01-01T20:15:55.508Z,12.80
2023-01-01T20:18:22.273Z,12.90
2023-01-01T20:21:07.776Z,12.90
2023-01-01T20:23:34.528Z,12.90
2023-01-01T20:26:01.358Z,12.80
2023-01-01T20:28:46.983Z,12.80
2023-01-01T20:31:13.764Z,12.80
2023-01-01T20:33:40.451Z,12.80
2023-01-01T20:36:26.023Z,12.80
2023-01-01T20:38:52.726Z,12.80
2023-01-01T20:41:25.161Z,12.80
2023-01-01T20:43:58.861Z,12.80
2023-01-01T20:46:25.819Z,12.80
2023-01-01T20:48:57.010Z,12.90
2023-01-01T20:51:23.879Z,12.80
2023-01-01T20:53:50.569Z,12.90
2023-01-01T20:56:17.426Z,14.40
2023-01-01T20:58:50.063Z,13.00
2023-01-01T21:01:25.207Z,13.10
2023-01-01T21:03:51.918Z,14.00
2023-01-01T21:06:24.099Z,13.30
2023-01-01T21:08:51.856Z,13.30
2023-01-01T21:11:18.927Z,13.30
2023-01-01T21:13:45.922Z,13.20
2023-01-01T21:16:30.474Z,13.30
2023-01-01T21:18:58.417Z,13.40
2023-01-01T21:21:41.909Z,13.40
2023-01-01T21:24:28.204Z,13.50
2023-01-01T21:27:17.883Z,13.50
2023-01-01T21:29:47.149Z,13.40
2023-01-01T21:32:21.660Z,13.40
2023-01-01T21:34:50.496Z,13.40
2023-01-01T21:37:47.943Z,13.50
2023-01-01T21:40:34.538Z,13.60
2023-01-01T21:43:20.090Z,13.50
2023-01-01T21:45:47.573Z,13.60
2023-01-01T21:48:41.279Z,13.50
2023-01-01T21:51:37.565Z,13.40
2023-01-01T21:54:10.397Z,13.40
2023-01-01T21:56:39.279Z,13.40
2023-01-01T21:59:27.213Z,13.40
2023-01-01T22:02:06.485Z,13.30
2023-01-01T22:04:48.252Z,13.30
2023-01-01T22:10:23.954Z,13.40
2023-01-01T22:12:55.875Z,13.40
2023-01-01T22:15:30.462Z,13.40
2023-01-01T22:18:09.243Z,13.30
2023-01-01T22:20:38.669Z,13.30
2023-01-01T22:23:41.252Z,13.40
2023-01-01T22:26:22.426Z,13.20
2023-01-01T22:29:01.879Z,13.20
2023-01-01T22:31:33.525Z,13.20
2023-01-01T22:34:03.453Z,13.10
2023-01-01T22:36:37.766Z,13.00
2023-01-01T22:39:15.814Z,13.00
2023-01-01T22:41:42.976Z,13.00
2023-01-01T22:44:11.310Z,12.90
2023-01-01T22:46:40.754Z,12.90
2023-01-01T22:49:23.825Z,13.00
2023-01-01T22:51:57.112Z,12.90
2023-01-01T22:54:23.841Z,13.00
2023-01-01T22:56:50.613Z,13.00
2023-01-01T22:59:17.309Z,12.90
2023-01-01T23:01:44.127Z,12.90
2023-01-01T23:04:10.845Z,12.80
2023-01-01T23:06:37.956Z,12.80
2023-01-01T23:09:05.768Z,12.70
2023-01-01T23:11:32.536Z,12.80
2023-01-01T23:14:17.960Z,12.80
2023-01-01T23:16:44.629Z,12.90
2023-01-01T23:19:11.330Z,12.80
2023-01-01T23:21:42.302Z,14.20
2023-01-01T23:24:20.864Z,12.70
2023-01-01T23:26:49.174Z,12.60
2023-01-01T23:29:16.518Z,12.70
2023-01-01T23:31:44.093Z,12.70
2023-01-01T23:34:11.707Z,12.70
2023-01-01T23:36:38.965Z,12.70
2023-01-01T23:39:06.596Z,12.60
2023-01-01T23:41:33.342Z,12.70
2023-01-01T23:44:00.254Z,12.60
2023-01-01T23:46:27.063Z,12.50
2023-01-01T23:48:54.537Z,12.50
2023-01-01T23:51:21.561Z,12.50
2023-01-01T23:53:48.224Z,12.50
2023-01-01T23:56:15.150Z,12.50
2023-01-01T23:58:41.911Z,12.50
